| time (UTC) | temp F | wind direction | speed knots | gust knots | rain 1hr in | rain 24hr in | rain mn in | humidity % | barometer mb |
| 20260509150341 | 67 | 140 | 0.9 | 0.9 | 0.00 | 0.00 | 0.00 | 59 | 1008.4 |
| 20260509145838 | 66 | 168 | 3.5 | 6.1 | 0.00 | 0.00 | 0.00 | 61 | 1008.4 |
| 20260509145333 | 66 | 167 | 0.9 | 1.7 | 0.00 | 0.00 | 0.00 | 61 | 1008.4 |
| 20260509144830 | 65 | 236 | 2.6 | 4.3 | 0.00 | 0.00 | 0.00 | 62 | 1008.3 |
| 20260509144327 | 65 | 180 | 2.6 | 2.6 | 0.00 | 0.00 | 0.00 | 63 | 1008.2 |
| 20260509143824 | 64 | 182 | 2.6 | 4.3 | 0.00 | 0.00 | 0.00 | 65 | 1008.3 |
| 20260509143321 | 63 | 91 | 5.2 | 11.3 | 0.00 | 0.00 | 0.00 | 66 | 1008.2 |
| 20260509142817 | 64 | 247 | 3.5 | 6.1 | 0.00 | 0.00 | 0.00 | 65 | 1008.4 |
| 20260509142313 | 63 | 239 | 2.6 | 2.6 | 0.00 | 0.00 | 0.00 | 68 | 1008.2 |
| 20260509141809 | 63 | 183 | 1.7 | 4.3 | 0.00 | 0.00 | 0.00 | 68 | 1008.4 |
| 20260509141307 | 63 | 210 | 1.7 | 2.6 | 0.00 | 0.00 | 0.00 | 68 | 1008.2 |
| 20260509140803 | 62 | 212 | 0.9 | 0.9 | 0.00 | 0.00 | 0.00 | 69 | 1008.1 |
| 20260509140300 | 62 | 218 | 3.5 | 4.3 | 0.00 | 0.00 | 0.00 | 70 | 1008.3 |
| 20260509135758 | 61 | 195 | 1.7 | 4.3 | 0.00 | 0.00 | 0.00 | 71 | 1008.2 |
| 20260509135255 | 61 | 275 | 1.7 | 1.7 | 0.00 | 0.00 | 0.00 | 72 | 1008.0 |
| 20260509134752 | 60 | 205 | 1.7 | 1.7 | 0.00 | 0.00 | 0.00 | 72 | 1008.1 |
| 20260509134250 | 61 | 181 | 0.0 | 0.9 | 0.00 | 0.00 | 0.00 | 73 | 1008.1 |
| 20260509133746 | 60 | 180 | 0.0 | 0.9 | 0.00 | 0.00 | 0.00 | 73 | 1008.1 |
| 20260509133242 | 59 | 199 | 0.0 | 0.9 | 0.00 | 0.00 | 0.00 | 75 | 1008.3 |
| 20260509132742 | 59 | 214 | 1.7 | 2.6 | 0.00 | 0.00 | 0.00 | 75 | 1008.1 |
| 20260509132240 | 60 | 163 | 3.5 | 5.2 | 0.00 | 0.00 | 0.00 | 75 | 1008.8 |
| 20260509131736 | 60 | 211 | 0.9 | 0.9 | 0.00 | 0.00 | 0.00 | 74 | 1008.5 |
| 20260509131233 | 59 | 161 | 0.9 | 0.9 | 0.00 | 0.00 | 0.00 | 75 | 1008.3 |
| 20260509130729 | 59 | 227 | 3.5 | 4.3 | 0.00 | 0.00 | 0.00 | 76 | 1008.4 |
| 20260509130225 | 59 | 235 | 2.6 | 2.6 | 0.00 | 0.00 | 0.00 | 76 | 1008.3 |
| 20260509125722 | 58 | 131 | 1.7 | 2.6 | 0.00 | 0.00 | 0.00 | 77 | 1008.3 |
| 20260509125219 | 58 | 238 | 1.7 | 1.7 | 0.00 | 0.00 | 0.00 | 77 | 1008.3 |
| 20260509124715 | 58 | 161 | 0.9 | 0.9 | 0.00 | 0.00 | 0.00 | 78 | 1008.1 |
| 20260509124212 | 57 | 173 | 0.9 | 1.7 | 0.00 | 0.00 | 0.00 | 79 | 1008.3 |
| 20260509123710 | 57 | 187 | 0.0 | 0.9 | 0.00 | 0.00 | 0.00 | 81 | 1008.4 |
| 20260509123207 | 56 | 203 | 1.7 | 4.3 | 0.00 | 0.00 | 0.00 | 81 | 1008.3 |
| 20260509122702 | 56 | 149 | 2.6 | 4.3 | 0.00 | 0.00 | 0.00 | 82 | 1008.5 |
| 20260509122200 | 56 | 208 | 2.6 | 2.6 | 0.00 | 0.00 | 0.00 | 82 | 1008.3 |
| 20260509121656 | 55 | 198 | 2.6 | 2.6 | 0.00 | 0.00 | 0.00 | 83 | 1008.4 |
| 20260509121154 | 55 | 174 | 2.6 | 2.6 | 0.00 | 0.00 | 0.00 | 83 | 1008.1 |
| 20260509120652 | 55 | 178 | 2.6 | 2.6 | 0.00 | 0.00 | 0.00 | 84 | 1008.5 |
| 20260509120149 | 55 | 173 | 0.9 | 0.9 | 0.00 | 0.00 | 0.00 | 85 | 1008.3 |
| 20260509115647 | 54 | 194 | 1.7 | 2.6 | 0.00 | 0.00 | 0.00 | 86 | 1008.3 |
| 20260509115144 | 54 | 192 | 1.7 | 1.7 | 0.00 | 0.00 | 0.00 | 87 | 1008.1 |
| 20260509114642 | 54 | 184 | 1.7 | 1.7 | 0.00 | 0.00 | 0.00 | 87 | 1008.2 |
| 20260509114141 | 54 | 152 | 1.7 | 1.7 | 0.00 | 0.00 | 0.00 | 87 | 1008.3 |
| 20260509113639 | 54 | 208 | 0.9 | 0.9 | 0.00 | 0.00 | 0.00 | 87 | 1008.2 |
| 20260509113136 | 54 | 204 | 1.7 | 1.7 | 0.00 | 0.00 | 0.00 | 87 | 1008.0 |
| 20260509112632 | 54 | 198 | 2.6 | 2.6 | 0.00 | 0.00 | 0.00 | 87 | 1007.9 |
| 20260509112130 | 54 | 191 | 2.6 | 4.3 | 0.00 | 0.00 | 0.00 | 87 | 1008.0 |
| 20260509111627 | 54 | 241 | 0.9 | 1.7 | 0.00 | 0.00 | 0.00 | 87 | 1007.9 |
| 20260509111123 | 54 | 190 | 0.9 | 0.9 | 0.00 | 0.00 | 0.00 | 87 | 1008.2 |
| 20260509110621 | 54 | 225 | 0.9 | 0.9 | 0.00 | 0.00 | 0.00 | 87 | 1008.0 |
| 20260509110118 | 54 | 189 | 0.9 | 1.7 | 0.00 | 0.00 | 0.00 | 86 | 1007.7 |
| 20260509105616 | 54 | 228 | 1.7 | 2.6 | 0.00 | 0.00 | 0.00 | 86 | 1007.6 |
| 20260509105113 | 54 | 172 | 2.6 | 2.6 | 0.00 | 0.00 | 0.00 | 86 | 1007.7 |
| 20260509104610 | 54 | 209 | 0.9 | 0.9 | 0.00 | 0.00 | 0.00 | 86 | 1007.8 |
| 20260509104108 | 54 | 201 | 0.9 | 0.9 | 0.00 | 0.00 | 0.00 | 85 | 1007.8 |
| 20260509103604 | 54 | 184 | 0.9 | 1.7 | 0.00 | 0.00 | 0.00 | 85 | 1007.7 |
| 20260509103102 | 54 | 175 | 4.3 | 6.1 | 0.00 | 0.00 | 0.00 | 86 | 1007.6 |
| 20260509102559 | 54 | 188 | 0.9 | 0.9 | 0.00 | 0.00 | 0.00 | 86 | 1007.6 |
| 20260509102056 | 54 | 183 | 2.6 | 4.3 | 0.00 | 0.00 | 0.00 | 85 | 1007.8 |
| 20260509101552 | 54 | 191 | 1.7 | 1.7 | 0.00 | 0.00 | 0.00 | 86 | 1007.7 |
| 20260509101049 | 54 | 176 | 1.7 | 2.6 | 0.00 | 0.00 | 0.00 | 86 | 1007.6 |
| 20260509100546 | 54 | 195 | 2.6 | 2.6 | 0.00 | 0.00 | 0.00 | 86 | 1007.8 |
| 20260509100044 | 54 | 184 | 4.3 | 7.0 | 0.00 | 0.00 | 0.00 | 86 | 1007.8 |
| 20260509095540 | 54 | 210 | 4.3 | 5.2 | 0.00 | 0.00 | 0.00 | 86 | 1008.0 |
| 20260509095038 | 54 | 189 | 2.6 | 2.6 | 0.00 | 0.00 | 0.00 | 87 | 1008.0 |
| 20260509094534 | 54 | 186 | 0.9 | 1.7 | 0.00 | 0.00 | 0.00 | 87 | 1008.2 |
| 20260509094031 | 54 | 211 | 0.9 | 0.9 | 0.00 | 0.00 | 0.00 | 87 | 1008.1 |
| 20260509093530 | 54 | 185 | 2.6 | 5.2 | 0.00 | 0.00 | 0.00 | 87 | 1008.4 |
| 20260509093027 | 54 | 214 | 2.6 | 2.6 | 0.00 | 0.00 | 0.00 | 87 | 1008.4 |
| 20260509092525 | 54 | 184 | 2.6 | 2.6 | 0.00 | 0.00 | 0.00 | 87 | 1008.5 |
| 20260509092023 | 54 | 201 | 0.9 | 1.7 | 0.00 | 0.00 | 0.00 | 87 | 1008.6 |
| 20260509091520 | 54 | 215 | 0.0 | 0.9 | 0.00 | 0.00 | 0.00 | 87 | 1008.3 |
| 20260509091016 | 54 | 157 | 0.9 | 1.7 | 0.00 | 0.00 | 0.00 | 87 | 1008.3 |
| 20260509090514 | 54 | 185 | 2.6 | 2.6 | 0.00 | 0.00 | 0.00 | 87 | 1008.3 |
| 20260509090012 | 54 | 174 | 1.7 | 1.7 | 0.00 | 0.00 | 0.00 | 87 | 1008.5 |
| 20260509085508 | 54 | 179 | 0.9 | 0.9 | 0.00 | 0.00 | 0.00 | 87 | 1008.6 |
| 20260509085004 | 54 | 189 | 2.6 | 4.3 | 0.00 | 0.00 | 0.00 | 87 | 1008.6 |
| 20260509084502 | 54 | 159 | 1.7 | 1.7 | 0.00 | 0.00 | 0.00 | 87 | 1008.6 |
| 20260509083959 | 54 | 163 | 0.9 | 0.9 | 0.00 | 0.00 | 0.00 | 87 | 1008.8 |
| 20260509083456 | 54 | 196 | 0.9 | 0.9 | 0.00 | 0.00 | 0.00 | 87 | 1008.5 |
| 20260509082952 | 53 | 183 | 0.9 | 0.9 | 0.00 | 0.00 | 0.00 | 86 | 1008.6 |
| 20260509082450 | 54 | 196 | 0.9 | 0.9 | 0.00 | 0.00 | 0.00 | 86 | 1008.5 |
| 20260509081947 | 54 | 206 | 1.7 | 1.7 | 0.00 | 0.00 | 0.00 | 86 | 1008.5 |
| 20260509081444 | 54 | 184 | 0.9 | 0.9 | 0.00 | 0.00 | 0.00 | 86 | 1008.3 |
| 20260509080941 | 54 | 212 | 0.0 | 0.9 | 0.00 | 0.00 | 0.00 | 85 | 1008.5 |
| 20260509080439 | 54 | 229 | 0.0 | 0.9 | 0.00 | 0.00 | 0.00 | 85 | 1008.6 |
| 20260509075937 | 54 | 195 | 1.7 | 1.7 | 0.00 | 0.00 | 0.00 | 85 | 1008.6 |
| 20260509075434 | 54 | 180 | 1.7 | 1.7 | 0.00 | 0.00 | 0.00 | 85 | 1008.6 |
| 20260509074932 | 54 | 180 | 1.7 | 1.7 | 0.00 | 0.00 | 0.00 | 84 | 1008.6 |
| 20260509074429 | 54 | 214 | 1.7 | 1.7 | 0.00 | 0.00 | 0.00 | 84 | 1008.7 |
| 20260509073925 | 54 | 151 | 2.6 | 2.6 | 0.00 | 0.00 | 0.00 | 84 | 1008.5 |
| 20260509073422 | 54 | 213 | 4.3 | 6.1 | 0.00 | 0.00 | 0.00 | 84 | 1008.9 |
| 20260509072918 | 54 | 184 | 1.7 | 2.6 | 0.00 | 0.00 | 0.00 | 83 | 1008.9 |
| 20260509072415 | 54 | 201 | 0.9 | 0.9 | 0.00 | 0.00 | 0.00 | 83 | 1009.1 |
| 20260509071911 | 55 | 160 | 0.9 | 1.7 | 0.00 | 0.00 | 0.00 | 83 | 1009.2 |
| 20260509071409 | 55 | 179 | 1.7 | 2.6 | 0.00 | 0.00 | 0.00 | 83 | 1009.0 |
| 20260509070906 | 55 | 177 | 0.9 | 1.7 | 0.00 | 0.00 | 0.00 | 82 | 1009.1 |
| 20260509070402 | 55 | 192 | 2.6 | 4.3 | 0.00 | 0.00 | 0.00 | 83 | 1009.2 |
| 20260509065858 | 55 | 136 | 0.9 | 0.9 | 0.00 | 0.00 | 0.00 | 83 | 1009.3 |
| 20260509065355 | 55 | 205 | 1.7 | 1.7 | 0.00 | 0.00 | 0.00 | 83 | 1009.3 |
| 20260509064851 | 55 | 198 | 1.7 | 2.6 | 0.00 | 0.00 | 0.00 | 83 | 1009.4 |
| 20260509064349 | 55 | 144 | 2.6 | 4.3 | 0.00 | 0.00 | 0.00 | 83 | 1009.4 |
| 20260509063846 | 55 | 197 | 2.6 | 2.6 | 0.00 | 0.00 | 0.00 | 83 | 1009.6 |
| 20260509063342 | 55 | 170 | 2.6 | 4.3 | 0.00 | 0.00 | 0.00 | 83 | 1009.6 |
| 20260509062839 | 55 | 172 | 1.7 | 1.7 | 0.00 | 0.00 | 0.00 | 83 | 1009.4 |
| 20260509062336 | 56 | 183 | 1.7 | 1.7 | 0.00 | 0.00 | 0.00 | 83 | 1009.5 |
| 20260509061833 | 56 | 202 | 0.9 | 1.7 | 0.00 | 0.00 | 0.00 | 82 | 1009.5 |
| 20260509061332 | 56 | 179 | 2.6 | 2.6 | 0.00 | 0.00 | 0.00 | 82 | 1009.5 |
| 20260509060828 | 56 | 179 | 1.7 | 5.2 | 0.00 | 0.00 | 0.00 | 82 | 1009.7 |
| 20260509060325 | 56 | 178 | 2.6 | 2.6 | 0.00 | 0.00 | 0.00 | 82 | 1009.7 |
| 20260509055820 | 56 | 212 | 0.9 | 0.9 | 0.00 | 0.00 | 0.00 | 82 | 1009.8 |
| 20260509055316 | 56 | 200 | 3.5 | 5.2 | 0.00 | 0.00 | 0.00 | 82 | 1009.9 |
| 20260509054813 | 56 | 165 | 2.6 | 4.3 | 0.00 | 0.00 | 0.00 | 81 | 1009.9 |
| 20260509054310 | 56 | 149 | 0.9 | 1.7 | 0.00 | 0.00 | 0.00 | 81 | 1009.7 |
| 20260509053808 | 56 | 162 | 0.9 | 1.7 | 0.00 | 0.00 | 0.00 | 81 | 1009.9 |
| 20260509053305 | 57 | 178 | 2.6 | 4.3 | 0.00 | 0.00 | 0.00 | 80 | 1010.0 |
| 20260509052803 | 57 | 202 | 1.7 | 2.6 | 0.00 | 0.00 | 0.00 | 80 | 1009.7 |
| 20260509052301 | 57 | 210 | 2.6 | 4.3 | 0.00 | 0.00 | 0.00 | 80 | 1009.9 |
| 20260509051758 | 57 | 142 | 0.9 | 0.9 | 0.00 | 0.00 | 0.00 | 79 | 1009.7 |
| 20260509051256 | 57 | 187 | 2.6 | 2.6 | 0.00 | 0.00 | 0.00 | 78 | 1009.7 |
| 20260509050752 | 57 | 219 | 2.6 | 2.6 | 0.00 | 0.00 | 0.00 | 78 | 1009.7 |
| 20260509050249 | 57 | 184 | 2.6 | 4.3 | 0.00 | 0.00 | 0.00 | 77 | 1009.6 |
| 20260509045746 | 57 | 211 | 3.5 | 5.2 | 0.00 | 0.00 | 0.00 | 77 | 1009.7 |
| 20260509045243 | 57 | 195 | 4.3 | 5.2 | 0.00 | 0.00 | 0.00 | 76 | 1009.8 |
| 20260509044740 | 57 | 237 | 0.9 | 0.9 | 0.00 | 0.00 | 0.00 | 76 | 1009.8 |
| 20260509044238 | 57 | 204 | 1.7 | 1.7 | 0.00 | 0.00 | 0.00 | 76 | 1009.9 |
| 20260509043734 | 57 | 212 | 1.7 | 1.7 | 0.00 | 0.00 | 0.00 | 75 | 1010.1 |
| 20260509043230 | 57 | 184 | 1.7 | 1.7 | 0.00 | 0.00 | 0.00 | 75 | 1010.0 |
| 20260509042726 | 57 | 180 | 0.9 | 1.7 | 0.00 | 0.00 | 0.00 | 75 | 1010.0 |
| 20260509042223 | 57 | 183 | 2.6 | 2.6 | 0.00 | 0.00 | 0.00 | 74 | 1010.0 |
| 20260509041720 | 57 | 167 | 3.5 | 5.2 | 0.00 | 0.00 | 0.00 | 74 | 1010.1 |
| 20260509041217 | 57 | 198 | 1.7 | 2.6 | 0.00 | 0.00 | 0.00 | 74 | 1010.0 |
| 20260509040715 | 57 | 195 | 4.3 | 5.2 | 0.00 | 0.00 | 0.00 | 73 | 1010.0 |
| 20260509040212 | 57 | 173 | 0.0 | 0.9 | 0.00 | 0.00 | 0.00 | 73 | 1009.9 |
| 20260509035708 | 57 | 203 | 2.6 | 4.3 | 0.00 | 0.00 | 0.00 | 73 | 1010.0 |
| 20260509035205 | 57 | 193 | 0.0 | 0.0 | 0.00 | 0.00 | 0.00 | 73 | 1010.0 |
| 20260509034703 | 57 | 202 | 2.6 | 2.6 | 0.00 | 0.00 | 0.00 | 73 | 1010.0 |
| 20260509034200 | 56 | 201 | 0.9 | 0.9 | 0.00 | 0.00 | 0.00 | 73 | 1010.2 |
| 20260509033657 | 55 | 185 | 0.0 | 0.9 | 0.00 | 0.00 | 0.00 | 73 | 1010.1 |
| 20260509033154 | 55 | 187 | 2.6 | 2.6 | 0.00 | 0.00 | 0.00 | 73 | 1010.0 |
| 20260509032651 | 55 | 183 | 0.9 | 0.9 | 0.00 | 0.00 | 0.00 | 74 | 1010.2 |
| 20260509032148 | 54 | 177 | 1.7 | 1.7 | 0.00 | 0.00 | 0.00 | 75 | 1010.2 |
| 20260509031645 | 53 | 176 | 0.0 | 0.9 | 0.00 | 0.00 | 0.00 | 76 | 1010.2 |
| 20260509031143 | 52 | 188 | 0.0 | 0.9 | 0.00 | 0.00 | 0.00 | 78 | 1010.1 |
| 20260509030641 | 52 | 92 | 0.0 | 0.0 | 0.00 | 0.00 | 0.00 | 78 | 1010.2 |
| 20260509030138 | 52 | 92 | 0.0 | 0.0 | 0.00 | 0.00 | 0.00 | 78 | 1010.3 |
| 20260509025634 | 52 | 92 | 0.0 | 0.0 | 0.00 | 0.00 | 0.00 | 77 | 1010.2 |
| 20260509025130 | 52 | 92 | 0.0 | 0.0 | 0.00 | 0.00 | 0.00 | 77 | 1010.4 |
| 20260509024625 | 52 | 92 | 0.0 | 0.0 | 0.00 | 0.00 | 0.00 | 76 | 1010.5 |
| 20260509024121 | 52 | 92 | 0.0 | 0.0 | 0.00 | 0.00 | 0.00 | 75 | 1010.3 |
| 20260509023620 | 52 | 92 | 0.0 | 0.0 | 0.00 | 0.00 | 0.00 | 75 | 1010.4 |
| 20260509023116 | 53 | 92 | 0.0 | 0.0 | 0.00 | 0.00 | 0.00 | 74 | 1010.4 |
| 20260509022612 | 53 | 92 | 0.0 | 0.0 | 0.00 | 0.00 | 0.00 | 74 | 1010.6 |
| 20260509022111 | 53 | 92 | 0.0 | 0.0 | 0.00 | 0.00 | 0.00 | 74 | 1010.7 |
| 20260509021607 | 53 | 92 | 0.0 | 0.0 | 0.00 | 0.00 | 0.00 | 74 | 1010.8 |
| 20260509021104 | 53 | 92 | 0.0 | 0.0 | 0.00 | 0.00 | 0.00 | 73 | 1010.7 |
| 20260509020603 | 53 | 92 | 0.0 | 0.0 | 0.00 | 0.00 | 0.00 | 73 | 1010.8 |
| 20260509020059 | 53 | 92 | 0.0 | 0.0 | 0.00 | 0.00 | 0.00 | 73 | 1010.6 |
| 20260509015558 | 53 | 172 | 0.0 | 0.9 | 0.00 | 0.00 | 0.00 | 72 | 1010.7 |
| 20260509015055 | 53 | 175 | 0.0 | 0.0 | 0.00 | 0.00 | 0.00 | 72 | 1010.7 |
| 20260509014551 | 53 | 155 | 0.0 | 0.0 | 0.00 | 0.00 | 0.00 | 72 | 1010.6 |
| 20260509014048 | 53 | 62 | 0.0 | 0.0 | 0.00 | 0.00 | 0.00 | 71 | 1010.4 |
| 20260509013545 | 53 | 63 | 0.0 | 0.0 | 0.00 | 0.00 | 0.00 | 71 | 1010.7 |
| 20260509013040 | 53 | 63 | 0.0 | 0.0 | 0.00 | 0.00 | 0.00 | 70 | 1010.6 |
| 20260509012537 | 53 | 187 | 0.0 | 0.0 | 0.00 | 0.00 | 0.00 | 69 | 1010.3 |
| 20260509012034 | 53 | 182 | 0.0 | 0.0 | 0.00 | 0.00 | 0.00 | 68 | 1010.5 |
| 20260509011532 | 53 | 162 | 0.0 | 0.0 | 0.00 | 0.00 | 0.00 | 67 | 1010.7 |
| 20260509011029 | 54 | 163 | 0.0 | 0.0 | 0.00 | 0.00 | 0.00 | 66 | 1010.3 |
| 20260509010527 | 54 | 170 | 0.0 | 0.0 | 0.00 | 0.00 | 0.00 | 65 | 1010.4 |
| 20260509010023 | 54 | 88 | 0.0 | 0.0 | 0.00 | 0.00 | 0.00 | 65 | 1010.6 |
| 20260509005521 | 54 | 94 | 0.0 | 0.0 | 0.00 | 0.00 | 0.00 | 63 | 1010.6 |
| 20260509005021 | 54 | 169 | 0.0 | 0.9 | 0.00 | 0.00 | 0.00 | 63 | 1010.8 |
| 20260509004518 | 54 | 165 | 0.0 | 0.9 | 0.00 | 0.00 | 0.00 | 62 | 1010.3 |
| 20260509004015 | 55 | 150 | 0.0 | 0.0 | 0.00 | 0.00 | 0.00 | 61 | 1010.5 |
| 20260509003514 | 55 | 126 | 1.7 | 1.7 | 0.00 | 0.00 | 0.00 | 60 | 1010.7 |
| 20260509003010 | 55 | 352 | 0.0 | 0.0 | 0.00 | 0.00 | 0.00 | 60 | 1010.7 |
| 20260509002508 | 55 | 156 | 0.0 | 0.0 | 0.00 | 0.00 | 0.00 | 59 | 1010.7 |
| 20260509002005 | 55 | 140 | 1.7 | 1.7 | 0.00 | 0.00 | 0.00 | 58 | 1010.8 |
| 20260509001502 | 55 | 150 | 0.9 | 0.9 | 0.00 | 0.00 | 0.00 | 57 | 1010.9 |
| 20260509000958 | 55 | 153 | 0.0 | 0.0 | 0.00 | 0.00 | 0.00 | 57 | 1011.0 |
| 20260509000457 | 55 | 141 | 0.9 | 1.7 | 0.00 | 0.00 | 0.00 | 56 | 1010.5 |
| 20260508235952 | 55 | 170 | 0.9 | 0.9 | 0.00 | 0.00 | 0.00 | 56 | 1010.6 |
| 20260508235450 | 55 | 149 | 0.0 | 0.9 | 0.00 | 0.00 | 0.00 | 55 | 1011.0 |
| 20260508234946 | 55 | 159 | 0.9 | 0.9 | 0.00 | 0.00 | 0.00 | 54 | 1010.9 |
| 20260508234443 | 56 | 89 | 2.6 | 2.6 | 0.00 | 0.00 | 0.00 | 53 | 1010.8 |
| 20260508233941 | 56 | 154 | 0.0 | 0.0 | 0.00 | 0.00 | 0.00 | 53 | 1011.0 |
| 20260508233440 | 56 | 197 | 0.9 | 0.9 | 0.00 | 0.00 | 0.00 | 54 | 1011.2 |
| 20260508232937 | 57 | 189 | 1.7 | 1.7 | 0.00 | 0.00 | 0.00 | 53 | 1010.9 |
| 20260508232434 | 58 | 171 | 0.9 | 1.7 | 0.00 | 0.00 | 0.00 | 51 | 1011.1 |
| 20260508231931 | 58 | 133 | 1.7 | 1.7 | 0.00 | 0.00 | 0.00 | 50 | 1011.0 |
| 20260508231428 | 58 | 142 | 0.0 | 0.9 | 0.00 | 0.00 | 0.00 | 50 | 1011.2 |
| 20260508230925 | 58 | 179 | 0.9 | 0.9 | 0.00 | 0.00 | 0.00 | 49 | 1010.9 |
| 20260508230421 | 58 | 169 | 0.0 | 0.0 | 0.00 | 0.00 | 0.00 | 49 | 1011.0 |
| 20260508225919 | 59 | 165 | 1.7 | 2.6 | 0.00 | 0.00 | 0.00 | 48 | 1011.3 |
| 20260508225415 | 59 | 100 | 0.0 | 0.9 | 0.00 | 0.00 | 0.00 | 48 | 1011.3 |
| 20260508224913 | 59 | 200 | 0.0 | 0.9 | 0.00 | 0.00 | 0.00 | 49 | 1011.1 |
| 20260508224410 | 59 | 105 | 1.7 | 1.7 | 0.00 | 0.00 | 0.00 | 47 | 1011.2 |
| 20260508223908 | 59 | 72 | 1.7 | 1.7 | 0.00 | 0.00 | 0.00 | 48 | 1011.3 |
| 20260508223405 | 59 | 83 | 0.9 | 1.7 | 0.00 | 0.00 | 0.00 | 47 | 1011.2 |
| 20260508222903 | 59 | 43 | 1.7 | 2.6 | 0.00 | 0.00 | 0.00 | 45 | 1011.1 |
| 20260508222359 | 58 | 153 | 0.0 | 0.0 | 0.00 | 0.00 | 0.00 | 47 | 1011.3 |
| 20260508221856 | 58 | 148 | 0.9 | 1.7 | 0.00 | 0.00 | 0.00 | 46 | 1011.3 |
| 20260508221351 | 58 | 181 | 0.0 | 0.9 | 0.00 | 0.00 | 0.00 | 48 | 1011.3 |
| 20260508220848 | 58 | 190 | 0.0 | 0.9 | 0.00 | 0.00 | 0.00 | 50 | 1011.3 |
| 20260508220345 | 58 | 95 | 0.9 | 1.7 | 0.00 | 0.00 | 0.00 | 48 | 1011.2 |
| 20260508215841 | 58 | 138 | 1.7 | 1.7 | 0.00 | 0.00 | 0.00 | 47 | 1011.5 |
| 20260508215338 | 59 | 184 | 0.0 | 0.9 | 0.00 | 0.00 | 0.00 | 47 | 1011.4 |
| 20260508214835 | 59 | 1 | 0.0 | 0.0 | 0.00 | 0.00 | 0.00 | 46 | 1011.4 |
| 20260508214332 | 60 | 52 | 3.5 | 5.2 | 0.00 | 0.00 | 0.00 | 44 | 1011.3 |
| 20260508213828 | 61 | 140 | 1.7 | 1.7 | 0.00 | 0.00 | 0.00 | 42 | 1011.3 |
| 20260508213325 | 62 | 115 | 0.9 | 1.7 | 0.00 | 0.00 | 0.00 | 44 | 1011.5 |
| 20260508212821 | 60 | 0 | 0.9 | 0.9 | 0.00 | 0.00 | 0.00 | 46 | 1011.5 |
| 20260508212318 | 59 | 91 | 0.9 | 0.9 | 0.00 | 0.00 | 0.00 | 46 | 1011.5 |
| 20260508211814 | 60 | 2 | 0.9 | 0.9 | 0.00 | 0.00 | 0.00 | 44 | 1011.6 |
| 20260508211309 | 60 | 73 | 0.9 | 0.9 | 0.00 | 0.00 | 0.00 | 45 | 1011.6 |
| 20260508210808 | 60 | 77 | 0.9 | 0.9 | 0.00 | 0.00 | 0.00 | 45 | 1011.9 |
| 20260508210304 | 61 | 65 | 2.6 | 2.6 | 0.00 | 0.00 | 0.00 | 43 | 1011.6 |
| 20260508205801 | 62 | 222 | 0.9 | 0.9 | 0.00 | 0.00 | 0.00 | 41 | 1011.6 |
| 20260508205257 | 62 | 172 | 0.9 | 1.7 | 0.00 | 0.00 | 0.00 | 44 | 1011.6 |
| 20260508204753 | 62 | 3 | 2.6 | 2.6 | 0.00 | 0.00 | 0.00 | 44 | 1011.7 |
| 20260508204250 | 64 | 66 | 1.7 | 1.7 | 0.00 | 0.00 | 0.00 | 43 | 1011.9 |
| 20260508203746 | 63 | 152 | 1.7 | 2.6 | 0.00 | 0.00 | 0.00 | 43 | 1011.8 |
| 20260508203243 | 62 | 12 | 2.6 | 2.6 | 0.00 | 0.00 | 0.00 | 42 | 1011.9 |
| 20260508202738 | 63 | 87 | 3.5 | 5.2 | 0.00 | 0.00 | 0.00 | 42 | 1011.9 |
| 20260508202236 | 63 | 4 | 2.6 | 2.6 | 0.00 | 0.00 | 0.00 | 41 | 1012.1 |
| 20260508201733 | 63 | 297 | 0.0 | 0.9 | 0.00 | 0.00 | 0.00 | 42 | 1012.1 |
| 20260508201229 | 63 | 62 | 1.7 | 1.7 | 0.00 | 0.00 | 0.00 | 43 | 1012.0 |
| 20260508200726 | 63 | 102 | 0.0 | 0.9 | 0.00 | 0.00 | 0.00 | 41 | 1012.6 |
| 20260508200222 | 63 | 64 | 1.7 | 1.7 | 0.00 | 0.00 | 0.00 | 44 | 1012.2 |
| 20260508195718 | 62 | 148 | 1.7 | 2.6 | 0.00 | 0.00 | 0.00 | 46 | 1012.7 |
| 20260508195215 | 61 | 82 | 1.7 | 1.7 | 0.00 | 0.00 | 0.00 | 45 | 1012.7 |
| 20260508194712 | 61 | 353 | 2.6 | 2.6 | 0.00 | 0.00 | 0.00 | 45 | 1012.4 |
| 20260508194209 | 62 | 165 | 1.7 | 2.6 | 0.00 | 0.00 | 0.00 | 42 | 1012.7 |
| 20260508193706 | 63 | 29 | 3.5 | 4.3 | 0.00 | 0.00 | 0.00 | 39 | 1013.1 |
| 20260508193202 | 63 | 189 | 0.9 | 1.7 | 0.00 | 0.00 | 0.00 | 42 | 1012.8 |
| 20260508192659 | 63 | 166 | 1.7 | 1.7 | 0.00 | 0.00 | 0.00 | 42 | 1012.8 |
| 20260508192156 | 64 | 19 | 1.7 | 1.7 | 0.00 | 0.00 | 0.00 | 43 | 1013.1 |
| 20260508191653 | 64 | 184 | 2.6 | 2.6 | 0.00 | 0.00 | 0.00 | 39 | 1013.0 |
| 20260508191149 | 63 | 89 | 1.7 | 1.7 | 0.00 | 0.00 | 0.00 | 41 | 1012.9 |
| 20260508190647 | 62 | 7 | 1.7 | 1.7 | 0.00 | 0.00 | 0.00 | 45 | 1013.0 |
| 20260508190143 | 63 | 344 | 3.5 | 4.3 | 0.00 | 0.00 | 0.00 | 44 | 1013.2 |
| 20260508185641 | 63 | 135 | 1.7 | 2.6 | 0.00 | 0.00 | 0.00 | 39 | 1013.2 |
| 20260508185138 | 63 | 154 | 0.9 | 1.7 | 0.00 | 0.00 | 0.00 | 47 | 1013.4 |
| 20260508184635 | 63 | 96 | 2.6 | 4.3 | 0.00 | 0.00 | 0.00 | 48 | 1013.5 |
| 20260508184132 | 62 | 187 | 0.9 | 1.7 | 0.00 | 0.00 | 0.00 | 49 | 1013.6 |
| 20260508183629 | 63 | 181 | 0.9 | 0.9 | 0.00 | 0.00 | 0.00 | 45 | 1013.4 |
| 20260508183125 | 64 | 72 | 2.6 | 2.6 | 0.00 | 0.00 | 0.00 | 45 | 1013.5 |
| 20260508182621 | 63 | 75 | 1.7 | 1.7 | 0.00 | 0.00 | 0.00 | 43 | 1013.6 |
| 20260508182118 | 64 | 17 | 3.5 | 4.3 | 0.00 | 0.00 | 0.00 | 41 | 1013.7 |
| 20260508181613 | 64 | 39 | 2.6 | 2.6 | 0.00 | 0.00 | 0.00 | 40 | 1013.6 |
| 20260508181111 | 63 | 338 | 0.9 | 0.9 | 0.00 | 0.00 | 0.00 | 43 | 1013.8 |
| 20260508180608 | 63 | 133 | 0.9 | 1.7 | 0.00 | 0.00 | 0.00 | 44 | 1013.7 |
| 20260508180104 | 64 | 37 | 2.6 | 2.6 | 0.00 | 0.00 | 0.00 | 44 | 1013.9 |
| 20260508175601 | 62 | 89 | 0.9 | 0.9 | 0.00 | 0.00 | 0.00 | 48 | 1013.8 |
| 20260508175058 | 62 | 90 | 1.7 | 1.7 | 0.00 | 0.00 | 0.00 | 48 | 1013.9 |
| 20260508174555 | 63 | 74 | 2.6 | 5.2 | 0.00 | 0.00 | 0.00 | 51 | 1014.0 |
| 20260508174052 | 62 | 173 | 1.7 | 1.7 | 0.00 | 0.00 | 0.00 | 52 | 1014.1 |
| 20260508173549 | 62 | 86 | 2.6 | 4.3 | 0.00 | 0.00 | 0.00 | 50 | 1014.5 |
| 20260508173045 | 63 | 178 | 1.7 | 1.7 | 0.00 | 0.00 | 0.00 | 52 | 1014.1 |
| 20260508172542 | 62 | 89 | 1.7 | 1.7 | 0.00 | 0.00 | 0.00 | 51 | 1014.4 |
| 20260508172039 | 62 | 337 | 1.7 | 1.7 | 0.00 | 0.00 | 0.00 | 52 | 1014.4 |
| 20260508171535 | 62 | 62 | 1.7 | 2.6 | 0.00 | 0.00 | 0.00 | 54 | 1014.6 |
| 20260508171032 | 62 | 168 | 1.7 | 1.7 | 0.00 | 0.00 | 0.00 | 55 | 1014.7 |
| 20260508170529 | 62 | 20 | 2.6 | 2.6 | 0.00 | 0.00 | 0.00 | 56 | 1014.9 |
| 20260508170026 | 62 | 159 | 0.9 | 1.7 | 0.00 | 0.00 | 0.00 | 56 | 1014.7 |
| 20260508165524 | 60 | 149 | 0.9 | 1.7 | 0.00 | 0.00 | 0.00 | 56 | 1014.8 |
| 20260508165020 | 61 | 251 | 0.9 | 0.9 | 0.00 | 0.00 | 0.00 | 57 | 1014.8 |
| 20260508164517 | 62 | 202 | 1.7 | 1.7 | 0.00 | 0.00 | 0.00 | 54 | 1015.0 |
| 20260508164014 | 61 | 118 | 0.0 | 0.0 | 0.00 | 0.00 | 0.00 | 56 | 1015.0 |
| 20260508163511 | 62 | 46 | 0.9 | 0.9 | 0.00 | 0.00 | 0.00 | 58 | 1015.1 |
| 20260508163007 | 61 | 182 | 0.9 | 1.7 | 0.00 | 0.00 | 0.00 | 56 | 1015.3 |
| 20260508162505 | 61 | 95 | 2.6 | 4.3 | 0.00 | 0.00 | 0.00 | 57 | 1015.0 |
| 20260508162002 | 61 | 25 | 0.9 | 0.9 | 0.00 | 0.00 | 0.00 | 59 | 1015.3 |
| 20260508161458 | 61 | 31 | 1.7 | 1.7 | 0.00 | 0.00 | 0.00 | 61 | 1015.4 |
| 20260508160955 | 61 | 162 | 0.9 | 0.9 | 0.00 | 0.00 | 0.00 | 59 | 1015.2 |
| 20260508160454 | 61 | 136 | 0.9 | 1.7 | 0.00 | 0.00 | 0.00 | 59 | 1015.4 |
| 20260508155950 | 61 | 187 | 0.9 | 2.6 | 0.00 | 0.00 | 0.00 | 59 | 1015.5 |
| 20260508155448 | 61 | 159 | 0.9 | 0.9 | 0.00 | 0.00 | 0.00 | 59 | 1015.2 |
| 20260508154944 | 61 | 78 | 0.9 | 0.9 | 0.00 | 0.00 | 0.00 | 59 | 1015.5 |
| 20260508154442 | 60 | 155 | 0.0 | 0.9 | 0.00 | 0.00 | 0.00 | 58 | 1015.6 |
| 20260508153938 | 61 | 133 | 1.7 | 1.7 | 0.00 | 0.00 | 0.00 | 61 | 1015.3 |
| 20260508153435 | 62 | 148 | 1.7 | 1.7 | 0.00 | 0.00 | 0.00 | 59 | 1015.6 |
| 20260508152931 | 60 | 125 | 0.9 | 0.9 | 0.00 | 0.00 | 0.00 | 62 | 1015.6 |
| 20260508152428 | 61 | 201 | 0.0 | 0.9 | 0.00 | 0.00 | 0.00 | 63 | 1015.7 |
| 20260508151924 | 60 | 70 | 2.6 | 2.6 | 0.00 | 0.00 | 0.00 | 63 | 1015.6 |
| 20260508151422 | 60 | 70 | 0.0 | 0.0 | 0.00 | 0.00 | 0.00 | 61 | 1015.7 |
| 20260508150918 | 60 | 71 | 0.9 | 0.9 | 0.00 | 0.00 | 0.00 | 63 | 1015.7 |